createdAt,value
2018-05-13T00:01:40.055Z,10.93
2018-05-13T00:04:12.671Z,9.93
2018-05-13T00:06:45.268Z,14.17
2018-05-13T00:09:17.919Z,11.47
2018-05-13T00:11:51.301Z,10.70
2018-05-13T00:14:24.704Z,12.53
2018-05-13T00:16:57.307Z,14.33
2018-05-13T00:19:29.944Z,10.87
2018-05-13T00:22:02.551Z,13.63
2018-05-13T00:24:35.197Z,13.73
2018-05-13T00:27:07.796Z,13.73
2018-05-13T00:29:40.416Z,13.77
2018-05-13T00:32:13.029Z,13.97
2018-05-13T00:34:45.685Z,11.97
2018-05-13T00:37:18.288Z,14.10
2018-05-13T00:39:50.934Z,16.73
2018-05-13T00:42:23.532Z,12.83
2018-05-13T00:44:56.155Z,16.00
2018-05-13T00:47:28.760Z,15.77
2018-05-13T00:50:01.399Z,15.80
2018-05-13T00:52:34.008Z,13.60
2018-05-13T00:55:06.657Z,16.33
2018-05-13T00:57:40.048Z,14.33
2018-05-13T01:00:12.712Z,12.00
2018-05-13T01:02:45.413Z,13.90
2018-05-13T01:05:18.745Z,15.57
2018-05-13T01:07:51.349Z,13.87
2018-05-13T01:10:24.759Z,14.20
2018-05-13T01:12:58.244Z,17.33
2018-05-13T01:15:31.701Z,14.53
2018-05-13T01:18:04.412Z,16.07
2018-05-13T01:20:37.064Z,16.30
2018-05-13T01:23:09.944Z,13.70
2018-05-13T01:25:42.697Z,16.33
2018-05-13T01:28:15.316Z,14.10
2018-05-13T01:30:47.969Z,15.97
2018-05-13T01:33:20.588Z,16.70
2018-05-13T01:35:53.248Z,15.83
2018-05-13T01:38:25.853Z,17.23
2018-05-13T01:40:58.492Z,16.00
2018-05-13T01:43:31.099Z,15.80
2018-05-13T01:46:04.522Z,16.87
2018-05-13T01:48:37.897Z,16.60
2018-05-13T01:51:10.854Z,17.77
2018-05-13T01:53:43.649Z,17.73
2018-05-13T01:56:16.346Z,12.90
2018-05-13T01:58:49.725Z,14.90
2018-05-13T02:01:23.115Z,18.13
2018-05-13T02:03:55.917Z,18.03
2018-05-13T02:06:28.819Z,17.80
2018-05-13T02:09:01.508Z,23.70
2018-05-13T02:11:34.208Z,17.70
2018-05-13T02:14:07.154Z,18.77
2018-05-13T02:16:39.923Z,19.50
2018-05-13T02:19:12.640Z,17.43
2018-05-13T02:21:45.298Z,19.63
2018-05-13T02:24:18.708Z,19.07
2018-05-13T02:26:51.382Z,21.23
2018-05-13T02:29:23.989Z,20.33
2018-05-13T02:31:57.406Z,20.00
2018-05-13T02:34:30.017Z,18.17
2018-05-13T02:37:02.648Z,19.63
2018-05-13T02:39:35.260Z,18.77
2018-05-13T02:42:08.808Z,19.00
2018-05-13T02:44:41.582Z,24.10
2018-05-13T02:47:14.216Z,24.03
2018-05-13T02:49:46.825Z,17.70
2018-05-13T02:52:19.477Z,29.93
2018-05-13T02:54:52.092Z,21.33
2018-05-13T02:57:24.754Z,23.63
2018-05-13T02:59:57.371Z,21.57
2018-05-13T03:02:30.006Z,24.53
2018-05-13T03:05:02.608Z,19.30
2018-05-13T03:07:35.244Z,21.07
2018-05-13T03:10:07.849Z,20.30
2018-05-13T03:12:40.489Z,20.30
2018-05-13T03:15:13.860Z,16.43
2018-05-13T03:17:46.489Z,19.60
2018-05-13T03:20:19.091Z,17.57
2018-05-13T03:22:51.728Z,20.67
2018-05-13T03:25:24.343Z,23.43
2018-05-13T03:27:56.988Z,19.87
2018-05-13T03:30:29.593Z,20.37
2018-05-13T03:33:02.217Z,20.50
2018-05-13T03:35:34.837Z,20.33
2018-05-13T03:38:07.496Z,20.20
2018-05-13T03:40:40.136Z,25.03
2018-05-13T03:43:12.768Z,25.03
2018-05-13T03:45:45.388Z,25.80
2018-05-13T03:48:18.028Z,25.90
2018-05-13T03:50:50.640Z,28.27
2018-05-13T03:53:23.275Z,25.70
2018-05-13T03:55:56.643Z,30.57
2018-05-13T03:58:29.297Z,28.57
2018-05-13T04:01:01.900Z,28.90
2018-05-13T04:03:34.536Z,26.73
2018-05-13T04:06:07.157Z,27.93
2018-05-13T04:08:51.621Z,27.90
2018-05-13T04:11:36.103Z,28.40
2018-05-13T04:14:20.504Z,28.40
2018-05-13T04:16:53.110Z,26.50
2018-05-13T04:19:25.742Z,32.97
2018-05-13T04:21:58.355Z,39.00
2018-05-13T04:24:30.981Z,26.83
2018-05-13T04:27:03.588Z,30.57
2018-05-13T04:29:36.228Z,31.60
2018-05-13T04:32:08.832Z,35.97
2018-05-13T04:34:42.239Z,29.03
2018-05-13T04:37:14.840Z,28.50
2018-05-13T04:39:47.479Z,31.03
2018-05-13T04:42:20.852Z,33.07
2018-05-13T04:44:53.481Z,30.27
2018-05-13T04:47:26.857Z,27.37
2018-05-13T04:49:59.497Z,27.87
2018-05-13T04:52:32.112Z,25.50
2018-05-13T04:55:04.761Z,26.70
2018-05-13T04:57:38.135Z,25.97
2018-05-13T05:00:10.776Z,26.83
2018-05-13T05:02:44.147Z,30.27
2018-05-13T05:05:16.801Z,26.30
2018-05-13T05:07:49.420Z,27.23
2018-05-13T05:10:22.064Z,28.70
2018-05-13T05:12:54.668Z,26.67
2018-05-13T05:15:27.293Z,38.13
2018-05-13T05:17:59.904Z,30.93
2018-05-13T05:20:32.531Z,30.17
2018-05-13T05:23:05.135Z,25.77
2018-05-13T05:25:37.780Z,26.27
2018-05-13T05:28:10.387Z,24.97
2018-05-13T05:30:43.791Z,26.50
2018-05-13T05:33:16.396Z,26.97
2018-05-13T05:35:49.100Z,26.23
2018-05-13T05:38:21.679Z,23.40
2018-05-13T05:40:55.087Z,22.63
2018-05-13T05:43:27.711Z,24.37
2018-05-13T05:46:00.339Z,23.07
2018-05-13T05:48:32.944Z,23.67
2018-05-13T05:51:05.592Z,24.50
2018-05-13T05:53:38.201Z,21.10
2018-05-13T05:56:10.863Z,25.17
2018-05-13T05:58:43.469Z,22.67
2018-05-13T06:01:16.140Z,20.80
2018-05-13T06:03:48.749Z,19.97
2018-05-13T06:06:21.405Z,22.70
2018-05-13T06:08:54.008Z,36.17
2018-05-13T06:11:26.702Z,19.03
2018-05-13T06:13:59.304Z,25.77
2018-05-13T06:16:32.132Z,19.33
2018-05-13T06:19:04.748Z,18.60
2018-05-13T06:21:37.413Z,18.03
2018-05-13T06:24:10.027Z,18.83
2018-05-13T06:26:42.684Z,19.27
2018-05-13T06:29:15.308Z,20.80
2018-05-13T06:31:47.993Z,16.53
2018-05-13T06:34:20.584Z,19.77
2018-05-13T06:36:53.254Z,18.33
2018-05-13T06:39:25.853Z,18.60
2018-05-13T06:41:58.502Z,15.37
2018-05-13T06:44:31.116Z,18.37
2018-05-13T06:47:03.779Z,20.07
2018-05-13T06:49:37.157Z,18.23
2018-05-13T06:52:09.814Z,19.57
2018-05-13T06:54:42.431Z,19.90
2018-05-13T06:57:15.085Z,14.83
2018-05-13T06:59:48.616Z,17.03
2018-05-13T07:02:21.266Z,16.73
2018-05-13T07:04:55.694Z,18.47
2018-05-13T07:07:28.289Z,14.70
2018-05-13T07:10:00.904Z,16.27
2018-05-13T07:12:33.536Z,12.97
2018-05-13T07:15:06.142Z,13.57
2018-05-13T07:17:38.772Z,12.67
2018-05-13T07:20:11.384Z,16.27
2018-05-13T07:22:44.021Z,14.33
2018-05-13T07:25:16.636Z,15.37
2018-05-13T07:27:49.288Z,10.60
2018-05-13T07:30:21.886Z,14.00
2018-05-13T07:32:54.545Z,13.07
2018-05-13T07:35:27.152Z,10.03
2018-05-13T07:37:59.821Z,14.03
2018-05-13T07:40:32.441Z,12.67
2018-05-13T07:43:05.073Z,12.77
2018-05-13T07:45:37.681Z,9.90
2018-05-13T07:48:10.329Z,13.57
2018-05-13T07:50:42.951Z,11.33
2018-05-13T07:53:16.380Z,10.83
2018-05-13T07:55:49.024Z,16.77
2018-05-13T07:58:21.671Z,11.97
2018-05-13T08:00:54.272Z,9.53
2018-05-13T08:03:26.918Z,11.60
2018-05-13T08:05:59.536Z,9.50
2018-05-13T08:08:32.184Z,9.43
2018-05-13T08:11:04.796Z,7.80
2018-05-13T08:13:37.433Z,8.50
2018-05-13T08:16:10.044Z,11.03
2018-05-13T08:18:42.763Z,10.80
2018-05-13T08:21:16.159Z,10.03
2018-05-13T08:23:48.777Z,9.80
2018-05-13T08:26:22.148Z,8.57
2018-05-13T08:28:54.794Z,11.67
2018-05-13T08:31:27.411Z,8.10
2018-05-13T08:34:00.042Z,8.07
2018-05-13T08:36:32.644Z,8.37
2018-05-13T08:39:06.065Z,8.43
2018-05-13T08:41:38.683Z,8.60
2018-05-13T08:44:11.352Z,7.70
2018-05-13T08:46:46.456Z,7.50
2018-05-13T08:49:19.377Z,8.50
2018-05-13T08:51:52.065Z,16.03
2018-05-13T08:54:24.716Z,6.60
2018-05-13T08:56:57.347Z,6.07
2018-05-13T08:59:30.011Z,9.30
2018-05-13T09:02:02.625Z,10.83
2018-05-13T09:04:35.263Z,7.27
2018-05-13T09:07:07.876Z,6.20
2018-05-13T09:09:40.523Z,14.37
2018-05-13T09:12:13.124Z,6.93
2018-05-13T09:14:45.759Z,7.50
2018-05-13T09:17:18.352Z,9.43
2018-05-13T09:19:50.999Z,9.57
2018-05-13T09:22:24.377Z,11.27
2018-05-13T09:24:57.015Z,3.87
2018-05-13T09:27:29.623Z,5.90
2018-05-13T09:30:02.301Z,8.30
2018-05-13T09:32:34.951Z,9.13
2018-05-13T09:35:07.584Z,6.00
2018-05-13T09:37:42.127Z,12.73
2018-05-13T09:40:14.760Z,4.67
2018-05-13T09:42:47.395Z,11.37
2018-05-13T09:45:20.959Z,4.57
2018-05-13T09:47:53.597Z,5.40
2018-05-13T09:50:26.252Z,6.33
2018-05-13T09:52:59.976Z,8.87
2018-05-13T09:55:32.629Z,14.83
2018-05-13T09:58:05.224Z,3.63
2018-05-13T10:00:37.868Z,15.67
2018-05-13T10:03:11.227Z,6.67
2018-05-13T10:05:43.939Z,5.63
2018-05-13T10:08:16.552Z,9.03
2018-05-13T10:10:49.978Z,4.30
2018-05-13T10:13:22.591Z,7.73
2018-05-13T10:15:55.239Z,2.30
2018-05-13T10:18:27.857Z,10.73
2018-05-13T10:21:00.501Z,6.13
2018-05-13T10:23:33.105Z,5.83
2018-05-13T10:26:05.743Z,6.27
2018-05-13T10:28:38.401Z,7.63
2018-05-13T10:31:11.041Z,5.27
2018-05-13T10:33:43.631Z,7.40
2018-05-13T10:36:16.320Z,5.13
2018-05-13T10:38:48.933Z,4.30
2018-05-13T10:41:21.593Z,11.27
2018-05-13T10:43:54.192Z,3.90
2018-05-13T10:46:26.870Z,3.80
2018-05-13T10:48:59.488Z,6.53
2018-05-13T10:51:32.876Z,4.60
2018-05-13T10:54:08.877Z,3.83
2018-05-13T10:56:41.502Z,2.60
2018-05-13T10:59:14.117Z,4.10
2018-05-13T11:01:47.523Z,7.57
2018-05-13T11:04:20.164Z,2.90
2018-05-13T11:06:52.876Z,7.37
2018-05-13T11:09:25.513Z,11.67
2018-05-13T11:11:58.165Z,4.40
2018-05-13T11:14:30.777Z,3.43
2018-05-13T11:17:04.188Z,6.10
2018-05-13T11:19:39.475Z,5.60
2018-05-13T11:22:12.100Z,5.13
2018-05-13T11:24:44.697Z,7.10
2018-05-13T11:27:17.340Z,5.23
2018-05-13T11:29:49.967Z,7.63
2018-05-13T11:32:22.604Z,7.43
2018-05-13T11:34:55.972Z,2.90
2018-05-13T11:37:28.612Z,3.50
2018-05-13T11:40:01.225Z,3.33
2018-05-13T11:42:33.908Z,4.87
2018-05-13T11:45:06.519Z,3.97
2018-05-13T11:47:39.165Z,8.80
2018-05-13T11:50:12.536Z,7.80
2018-05-13T11:52:45.172Z,7.40
2018-05-13T11:55:18.542Z,6.70
2018-05-13T11:57:51.170Z,8.03
2018-05-13T12:00:23.780Z,7.10
2018-05-13T12:02:56.401Z,3.60
2018-05-13T12:05:29.030Z,4.80
2018-05-13T12:08:01.651Z,6.70
2018-05-13T12:10:34.258Z,6.67
2018-05-13T12:13:06.909Z,5.00
2018-05-13T12:15:39.518Z,4.47
2018-05-13T12:18:12.975Z,8.07
2018-05-13T12:20:45.576Z,3.27
2018-05-13T12:23:18.218Z,2.57
2018-05-13T12:25:50.820Z,4.43
2018-05-13T12:28:23.459Z,12.10
2018-05-13T12:30:56.084Z,7.93
2018-05-13T12:33:28.708Z,3.93
2018-05-13T12:36:01.306Z,3.23
2018-05-13T12:38:33.945Z,4.23
2018-05-13T12:41:06.577Z,4.87
2018-05-13T12:43:39.223Z,4.97
2018-05-13T12:46:11.832Z,6.33
2018-05-13T12:48:45.220Z,7.13
2018-05-13T12:51:17.819Z,3.37
2018-05-13T12:53:51.223Z,6.23
2018-05-13T12:56:23.933Z,3.87
2018-05-13T12:58:56.508Z,3.23
2018-05-13T13:01:29.114Z,3.80
2018-05-13T13:04:01.753Z,3.07
2018-05-13T13:06:34.476Z,10.90
2018-05-13T13:09:07.128Z,2.77
2018-05-13T13:11:39.733Z,3.03
2018-05-13T13:14:12.364Z,5.83
2018-05-13T13:16:45.750Z,9.10
2018-05-13T13:19:18.384Z,4.27
2018-05-13T13:21:51.001Z,6.40
2018-05-13T13:24:23.663Z,5.37
2018-05-13T13:26:58.024Z,3.83
2018-05-13T13:29:30.666Z,4.20
2018-05-13T13:32:03.269Z,2.57
2018-05-13T13:34:35.905Z,6.20
2018-05-13T13:37:08.514Z,5.40
2018-05-13T13:39:41.136Z,5.20
2018-05-13T13:42:13.746Z,5.07
2018-05-13T13:44:47.149Z,5.10
2018-05-13T13:47:19.809Z,3.40
2018-05-13T13:49:52.415Z,3.77
2018-05-13T13:52:25.020Z,5.20
2018-05-13T13:54:57.660Z,5.90
2018-05-13T13:57:30.247Z,5.27
2018-05-13T14:00:02.888Z,3.30
2018-05-13T14:02:35.522Z,2.43
2018-05-13T14:05:08.169Z,4.27
2018-05-13T14:07:40.809Z,2.43
2018-05-13T14:10:13.453Z,3.93
2018-05-13T14:12:46.061Z,2.40
2018-05-13T14:15:18.679Z,4.23
2018-05-13T14:17:51.278Z,4.73
2018-05-13T14:20:24.019Z,3.40
2018-05-13T14:22:56.561Z,6.63
2018-05-13T14:25:29.192Z,3.63
2018-05-13T14:28:01.797Z,2.63
2018-05-13T14:30:35.203Z,8.97
2018-05-13T14:33:08.580Z,5.40
2018-05-13T14:35:41.223Z,2.17
2018-05-13T14:38:14.596Z,6.50
2018-05-13T14:40:47.287Z,7.10
2018-05-13T14:43:19.853Z,2.47
2018-05-13T14:45:52.495Z,4.07
2018-05-13T14:48:25.881Z,2.47
2018-05-13T14:50:58.506Z,4.83
2018-05-13T14:53:31.114Z,7.13
2018-05-13T14:56:03.769Z,2.70
2018-05-13T14:58:36.436Z,3.67
2018-05-13T15:01:09.056Z,4.90
2018-05-13T15:03:41.828Z,2.13
2018-05-13T15:06:14.477Z,4.23
2018-05-13T15:08:47.123Z,8.23
2018-05-13T15:11:19.765Z,4.70
2018-05-13T15:13:52.379Z,6.23
2018-05-13T15:16:25.033Z,2.97
2018-05-13T15:18:57.631Z,3.50
2018-05-13T15:21:30.276Z,3.30
2018-05-13T15:24:02.868Z,2.50
2018-05-13T15:26:35.519Z,4.63
2018-05-13T15:29:08.128Z,4.83
2018-05-13T15:31:40.800Z,5.53
2018-05-13T15:34:13.414Z,10.57
2018-05-13T15:36:46.037Z,3.50
2018-05-13T15:39:18.651Z,3.87
2018-05-13T15:41:52.048Z,3.80
2018-05-13T15:44:25.434Z,6.07
2018-05-13T15:46:58.068Z,6.40
2018-05-13T15:49:30.676Z,4.37
2018-05-13T15:52:03.323Z,9.00
2018-05-13T15:54:35.932Z,5.17
2018-05-13T15:57:09.351Z,5.00
2018-05-13T15:59:41.952Z,9.17
2018-05-13T16:02:14.597Z,8.73
2018-05-13T16:04:47.210Z,7.50
2018-05-13T16:07:20.625Z,7.10
2018-05-13T16:09:53.988Z,4.23
2018-05-13T16:12:26.628Z,6.63
2018-05-13T16:14:59.239Z,4.43
2018-05-13T16:17:31.886Z,6.77
2018-05-13T16:20:04.495Z,5.40
2018-05-13T16:22:37.137Z,8.20
2018-05-13T16:25:09.751Z,2.97
2018-05-13T16:27:42.395Z,6.63
2018-05-13T16:30:15.030Z,4.53
2018-05-13T16:32:47.675Z,6.10
2018-05-13T16:35:20.286Z,7.73
2018-05-13T16:37:52.945Z,12.07
2018-05-13T16:40:25.625Z,47.90
2018-05-13T16:42:58.292Z,11.27
2018-05-13T16:45:30.903Z,26.53
2018-05-13T16:48:03.616Z,28.77
2018-05-13T16:50:36.988Z,19.30
2018-05-13T16:53:09.677Z,50.70
2018-05-13T16:55:42.276Z,35.97
2018-05-13T16:58:14.919Z,11.57
2018-05-13T17:00:47.529Z,34.40
2018-05-13T17:03:20.160Z,7.93
2018-05-13T17:05:52.793Z,15.80
2018-05-13T17:08:25.548Z,3.33
2018-05-13T17:10:58.156Z,4.43
2018-05-13T17:13:31.637Z,3.83
2018-05-13T17:16:04.239Z,8.13
2018-05-13T17:18:37.835Z,3.43
2018-05-13T17:21:10.444Z,9.10
2018-05-13T17:23:43.068Z,4.57
2018-05-13T17:26:15.675Z,4.57
2018-05-13T17:28:48.315Z,3.07
2018-05-13T17:31:20.913Z,4.63
2018-05-13T17:33:53.567Z,5.37
2018-05-13T17:36:26.196Z,5.33
2018-05-13T17:38:59.764Z,5.20
2018-05-13T17:41:32.736Z,4.37
2018-05-13T17:44:05.440Z,16.27
2018-05-13T17:46:38.044Z,7.63
2018-05-13T17:49:10.685Z,4.60
2018-05-13T17:51:43.292Z,4.50
2018-05-13T17:54:15.944Z,10.63
2018-05-13T17:56:48.572Z,5.23
2018-05-13T17:59:21.204Z,4.83
2018-05-13T18:01:53.813Z,7.10
2018-05-13T18:04:26.464Z,3.97
2018-05-13T18:06:59.101Z,5.43
2018-05-13T18:09:31.774Z,4.27
2018-05-13T18:12:04.380Z,6.27
2018-05-13T18:14:37.013Z,3.47
2018-05-13T18:17:09.620Z,3.47
2018-05-13T18:19:42.277Z,5.30
2018-05-13T18:22:14.890Z,3.70
2018-05-13T18:24:48.414Z,5.03
2018-05-13T18:27:20.996Z,3.90
2018-05-13T18:29:54.404Z,3.07
2018-05-13T18:32:27.793Z,3.23
2018-05-13T18:35:00.420Z,3.17
2018-05-13T18:37:33.032Z,7.13
2018-05-13T18:40:05.663Z,5.13
2018-05-13T18:42:38.270Z,7.17
2018-05-13T18:45:10.888Z,4.17
2018-05-13T18:47:43.494Z,4.43
2018-05-13T18:50:16.183Z,9.63
2018-05-13T18:52:48.788Z,5.47
2018-05-13T18:55:21.429Z,2.60
2018-05-13T18:57:54.028Z,6.53
2018-05-13T19:00:26.682Z,5.27
2018-05-13T19:02:59.403Z,6.73
2018-05-13T19:05:32.036Z,6.40
2018-05-13T19:08:04.651Z,4.83
2018-05-13T19:10:37.332Z,6.20
2018-05-13T19:13:09.939Z,6.30
2018-05-13T19:15:42.620Z,3.70
2018-05-13T19:18:15.231Z,4.97
2018-05-13T19:20:47.891Z,4.27
2018-05-13T19:23:20.505Z,4.77
2018-05-13T19:25:53.143Z,3.77
2018-05-13T19:28:25.762Z,6.97
2018-05-13T19:30:58.499Z,10.63
2018-05-13T19:33:31.030Z,4.43
2018-05-13T19:36:03.671Z,11.03
2018-05-13T19:38:36.284Z,35.97
2018-05-13T19:41:08.933Z,22.77
2018-05-13T19:43:41.549Z,23.30
2018-05-13T19:46:14.192Z,8.13
2018-05-13T19:48:46.893Z,9.27
2018-05-13T19:51:19.476Z,7.03
2018-05-13T19:53:52.080Z,2.83
2018-05-13T19:56:24.725Z,11.67
2018-05-13T19:58:57.329Z,4.27
2018-05-13T20:01:29.960Z,7.87
2018-05-13T20:04:02.565Z,4.93
2018-05-13T20:06:35.203Z,8.27
2018-05-13T20:09:08.581Z,5.43
2018-05-13T20:11:41.215Z,6.07
2018-05-13T20:14:14.580Z,4.77
2018-05-13T20:16:47.209Z,3.93
2018-05-13T20:19:20.640Z,5.87
2018-05-13T20:21:53.297Z,4.40
2018-05-13T20:24:25.897Z,3.93
2018-05-13T20:26:58.551Z,5.13
2018-05-13T20:29:31.156Z,6.23
2018-05-13T20:32:03.816Z,8.07
2018-05-13T20:34:36.412Z,4.93
2018-05-13T20:37:09.032Z,3.57
2018-05-13T20:39:41.653Z,7.73
2018-05-13T20:42:14.296Z,6.83
2018-05-13T20:44:46.933Z,8.37
2018-05-13T20:47:20.353Z,4.50
2018-05-13T20:49:53.723Z,5.40
2018-05-13T20:52:26.352Z,7.60
2018-05-13T20:54:58.981Z,11.13
2018-05-13T20:57:31.633Z,5.23
2018-05-13T21:00:05.999Z,6.47
2018-05-13T21:02:38.629Z,5.93
2018-05-13T21:05:11.250Z,11.83
2018-05-13T21:07:43.926Z,9.00
2018-05-13T21:10:16.524Z,6.80
2018-05-13T21:12:49.188Z,6.87
2018-05-13T21:15:21.796Z,9.93
2018-05-13T21:17:54.431Z,8.63
2018-05-13T21:20:27.037Z,6.57
2018-05-13T21:22:59.679Z,5.13
2018-05-13T21:25:33.048Z,11.43
2018-05-13T21:28:05.688Z,7.77
2018-05-13T21:30:38.298Z,7.80
2018-05-13T21:33:10.936Z,3.87
2018-05-13T21:35:43.546Z,5.20
2018-05-13T21:38:16.220Z,6.43
2018-05-13T21:40:48.832Z,5.40
2018-05-13T21:43:21.476Z,9.10
2018-05-13T21:45:54.091Z,3.97
2018-05-13T21:48:26.740Z,4.50
2018-05-13T21:50:59.372Z,5.07
2018-05-13T21:53:32.042Z,4.10
2018-05-13T21:56:04.665Z,3.57
2018-05-13T21:58:37.343Z,8.90
2018-05-13T22:01:09.958Z,4.50
2018-05-13T22:03:42.608Z,3.83
2018-05-13T22:06:15.215Z,7.80
2018-05-13T22:08:47.863Z,8.17
2018-05-13T22:11:21.242Z,4.50
2018-05-13T22:13:53.984Z,6.03
2018-05-13T22:16:26.581Z,6.77
2018-05-13T22:18:59.200Z,7.50
2018-05-13T22:21:31.803Z,4.90
2018-05-13T22:24:04.423Z,4.20
2018-05-13T22:26:37.797Z,7.63
2018-05-13T22:29:10.480Z,6.27
2018-05-13T22:31:43.115Z,6.17
2018-05-13T22:34:16.523Z,4.57
2018-05-13T22:36:49.902Z,5.23
2018-05-13T22:39:22.515Z,4.13
2018-05-13T22:41:55.116Z,3.77
2018-05-13T22:44:28.544Z,4.53
2018-05-13T22:47:01.146Z,6.20
2018-05-13T22:49:33.792Z,6.73
2018-05-13T22:52:06.399Z,7.50
2018-05-13T22:54:39.801Z,12.30
2018-05-13T22:57:13.180Z,5.30
2018-05-13T22:59:45.797Z,9.73
2018-05-13T23:02:18.403Z,5.63
2018-05-13T23:04:51.841Z,4.93
2018-05-13T23:07:25.200Z,8.87
2018-05-13T23:09:57.844Z,4.50
2018-05-13T23:12:30.440Z,10.27
2018-05-13T23:15:03.075Z,6.10
2018-05-13T23:17:35.676Z,7.53
2018-05-13T23:20:08.325Z,4.90
2018-05-13T23:22:40.934Z,8.13
2018-05-13T23:25:13.583Z,7.57
2018-05-13T23:27:46.194Z,11.07
2018-05-13T23:30:18.853Z,6.07
2018-05-13T23:32:52.216Z,5.87
2018-05-13T23:35:24.891Z,4.33
2018-05-13T23:37:57.490Z,9.17
2018-05-13T23:40:30.132Z,13.70
2018-05-13T23:43:03.492Z,5.50
2018-05-13T23:45:36.160Z,7.90
2018-05-13T23:48:08.762Z,6.33
2018-05-13T23:50:41.405Z,5.90
2018-05-13T23:53:14.010Z,7.10
2018-05-13T23:55:46.657Z,5.50
2018-05-13T23:58:19.332Z,6.67
